Tuesday, February 19, 2019, 9:08 PM EST
Back to Local

KEEN, Keene, Dillant-hopkins Airport

Location: Keene, NH, United States Lat: 42.9
Local Time: 9:08 PM EST ( 2:08 GMT) Lon: -72.267
Time Zone: US/Eastern Elev: 488 ft

Show me the last for .
Show Coded

Time T Td Feel RH Dir Speed Gust Alt SLP Vis Weather Sky Remarks
2019-02-19 19:56 19 4 11 50 270° 6 - 30.53 30.59 10 CLR None
2019-02-19 18:56 21 4 12 46 270° 7 - 30.51 30.58 10 CLR 6-hr Min Temp (7pm): 21.0°F
6-hr Max Temp (7pm): 30.0°F
2019-02-19 17:56 22 3 13 43 280° 8 - 30.49 30.55 10 CLR None
2019-02-19 16:56 26 0 18 31 310° 7 - 30.46 30.52 10 CLR None
2019-02-19 15:56 28 1 17 30 330° 15 - 30.46 30.53 10 CLR None
2019-02-19 14:56 30 4 21 32 350° 12 - 30.47 30.53 10 CLR None
2019-02-19 13:56 25 3 16 38 280° 9 - 30.46 30.53 10 CLR None
2019-02-19 12:56 25 4 18 39 340° 6 - 30.47 30.54 10 CLR 1-hr Precip Total: Trace
6-hr Precip Total (1pm): 0.00"
6-hr Min Temp (1pm): -0.9°F
6-hr Max Temp (1pm): 26.1°F
2019-02-19 11:56 25 4 13 39 360° 15 - 30.47 30.54 9 -SN CLR 1-hr Precip Total: Trace
2019-02-19 10:56 24 4 14 41 310° 10 - 30.49 30.55 9 CLR 1-hr Precip Total: Trace
2019-02-19 09:56 20 4 4 49 330° 10 20 30.48 30.55 10 CLR None
2019-02-19 08:56 16 5 7 61 340° 6 - 30.48 30.54 10 CLR None
2019-02-19 07:56 7 4 - 86 - Calm - 30.46 30.52 4 BR CLR None
2019-02-19 06:56 0 -4 -10 82 190° 5 - 30.43 30.49 10 CLR 24-hr Precip Total (7am): 0.01"
6-hr Min Temp (7am): -0.0°F
6-hr Max Temp (7am): 10.0°F
2019-02-19 05:56 1 -2 - 86 - Calm - 30.40 30.46 10 CLR None
2019-02-19 04:56 2 -3 - 79 - Calm - 30.37 30.44 10 CLR None
2019-02-19 03:56 4 1 - 87 - Calm - 30.35 30.41 10 CLR None
2019-02-19 02:56 5 1 - 83 - Calm - 30.33 30.39 10 CLR None
2019-02-19 01:56 9 3 - 76 - Calm - 30.30 30.37 10 CLR None
2019-02-19 00:56 9 2 - 72 - Calm - 30.28 30.35 10 CLR 6-hr Min Temp (1am): 9.0°F
6-hr Max Temp (1am): 21.9°F
2019-02-18 23:56 14 5 - 66 - Calm - 30.25 30.32 10 CLR 24-hr Min Temp (12am): 12.9°F
24-hr Max Temp (12am): 30.0°F
2019-02-18 22:56 15 5 5 63 340° 7 - 30.23 30.29 10 CLR None
2019-02-18 21:56 16 7 4 66 340° 9 - 30.20 30.27 10 CLR None

Support USWX by starting your Amazon purchase here.